Terminal Aerodrome Forecast
Issued by NWS Grand Junction, CO

Home | Current Version | Previous Version | Text Only | Print | Product List | Glossary On
Versions: 1 2 3 4 5 6 7 8 9 10 11 12 13 14 15 16 17 18 19 20 21
000
FTUS45 KGJT 290154 AAC
TAFGJT
TAF AMD
KGJT 290154Z 2902/2924 27006KT P6SM VCSH SCT060 BKN110
      TEMPO 2902/2903 VRB10KT -TSRA SCT035 BKN050CB
     FM290300 08008KT P6SM SCT070 BKN100
     FM291400 12005KT P6SM BKN100
     FM292000 29010KT P6SM VCSH BKN070=

USA.gov is the U.S. government's official web portal to all federal, state and local government web resources and services.